createdAt,value
2023-05-02T00:01:17.840Z,22.00
2023-05-02T00:03:45.056Z,22.60
2023-05-02T00:06:12.846Z,23.50
2023-05-02T00:08:40.514Z,23.90
2023-05-02T00:11:07.506Z,21.60
2023-05-02T00:13:34.498Z,25.30
2023-05-02T00:16:01.685Z,34.70
2023-05-02T00:18:28.586Z,35.70
2023-05-02T00:20:56.651Z,34.20
2023-05-02T00:23:24.196Z,29.30
2023-05-02T00:25:51.361Z,31.80
2023-05-02T00:28:18.811Z,32.00
2023-05-02T00:30:46.317Z,29.20
2023-05-02T00:33:15.142Z,30.90
2023-05-02T00:35:42.414Z,29.70
2023-05-02T00:38:09.486Z,29.30
2023-05-02T00:40:46.486Z,28.50
2023-05-02T00:43:14.138Z,27.30
2023-05-02T00:45:42.325Z,28.00
2023-05-02T00:48:09.704Z,29.80
2023-05-02T00:50:41.156Z,28.10
2023-05-02T00:53:08.897Z,28.40
2023-05-02T00:55:35.918Z,25.20
2023-05-02T00:58:12.054Z,26.80
2023-05-02T01:01:20.898Z,25.40
2023-05-02T01:04:00.223Z,24.10
2023-05-02T01:06:44.885Z,23.10
2023-05-02T01:09:37.324Z,23.20
2023-05-02T01:12:43.583Z,23.30
2023-05-02T01:15:12.902Z,23.00
2023-05-02T01:17:39.900Z,23.70
2023-05-02T01:20:09.192Z,25.00
2023-05-02T01:22:36.152Z,22.30
2023-05-02T01:25:20.182Z,23.20
2023-05-02T01:27:54.711Z,25.20
2023-05-02T01:30:21.835Z,23.00
2023-05-02T01:32:48.849Z,23.80
2023-05-02T01:35:16.586Z,23.30
2023-05-02T01:37:44.922Z,23.80
2023-05-02T01:40:12.359Z,24.70
2023-05-02T01:42:39.354Z,21.40
2023-05-02T01:45:07.443Z,19.80
2023-05-02T01:47:36.125Z,23.60
2023-05-02T01:50:08.062Z,23.60
2023-05-02T01:52:35.646Z,21.80
2023-05-02T01:55:02.679Z,21.90
2023-05-02T01:57:29.792Z,22.10
2023-05-02T01:59:57.463Z,22.20
2023-05-02T02:02:27.330Z,22.60
2023-05-02T02:04:57.529Z,21.60
2023-05-02T02:07:24.541Z,23.70
2023-05-02T02:09:51.774Z,22.50
2023-05-02T02:12:25.992Z,24.20
2023-05-02T02:15:21.224Z,22.40
2023-05-02T02:17:50.575Z,22.90
2023-05-02T02:20:17.617Z,23.50
2023-05-02T02:22:44.639Z,21.90
2023-05-02T02:25:12.515Z,19.20
2023-05-02T02:27:39.553Z,24.00
2023-05-02T02:30:07.774Z,19.70
2023-05-02T02:32:34.878Z,17.60
2023-05-02T02:35:03.209Z,18.70
2023-05-02T02:37:35.684Z,16.90
2023-05-02T02:40:09.122Z,16.10
2023-05-02T02:43:04.395Z,15.80
2023-05-02T02:45:38.527Z,17.30
2023-05-02T02:48:33.535Z,20.10
2023-05-02T02:51:14.078Z,18.30
2023-05-02T02:53:55.848Z,18.00
2023-05-02T02:56:36.611Z,18.00
2023-05-02T02:59:06.814Z,17.80
2023-05-02T03:01:33.808Z,18.80
2023-05-02T03:04:00.943Z,16.40
2023-05-02T03:06:27.950Z,19.20
2023-05-02T03:08:56.620Z,19.00
2023-05-02T03:11:24.102Z,18.80
2023-05-02T03:13:53.008Z,19.90
2023-05-02T03:16:34.265Z,18.10
2023-05-02T03:19:01.478Z,19.40
2023-05-02T03:21:28.514Z,18.50
2023-05-02T03:23:56.583Z,17.00
2023-05-02T03:26:23.616Z,17.60
2023-05-02T03:28:51.708Z,17.50
2023-05-02T03:31:20.431Z,18.30
2023-05-02T03:33:48.382Z,18.30
2023-05-02T03:36:16.384Z,20.00
2023-05-02T03:38:43.477Z,19.90
2023-05-02T03:41:11.006Z,19.90
2023-05-02T03:43:38.691Z,17.20
2023-05-02T03:46:09.756Z,17.20
2023-05-02T03:48:37.760Z,18.30
2023-05-02T03:51:05.827Z,19.50
2023-05-02T03:53:38.694Z,19.10
2023-05-02T03:56:08.128Z,16.80
2023-05-02T03:58:41.456Z,16.30
2023-05-02T04:01:16.500Z,22.50
2023-05-02T04:03:46.260Z,16.40
2023-05-02T04:06:15.186Z,15.50
2023-05-02T04:08:44.536Z,14.20
2023-05-02T04:11:11.959Z,20.30
2023-05-02T04:13:39.142Z,14.60
2023-05-02T04:16:06.335Z,12.20
2023-05-02T04:18:35.149Z,13.50
2023-05-02T04:21:03.715Z,14.70
2023-05-02T04:23:31.333Z,17.60
2023-05-02T04:26:01.225Z,17.90
2023-05-02T04:31:14.666Z,11.80
2023-05-02T04:33:43.328Z,11.50
2023-05-02T04:36:11.285Z,13.10
2023-05-02T04:38:41.610Z,10.90
2023-05-02T04:41:09.663Z,10.40
2023-05-02T04:43:44.617Z,6.60
2023-05-02T04:46:13.417Z,8.70
2023-05-02T04:48:42.396Z,10.60
2023-05-02T04:51:10.475Z,6.30
2023-05-02T04:53:38.053Z,8.60
2023-05-02T04:56:05.552Z,6.00
2023-05-02T04:58:35.627Z,6.10
2023-05-02T05:01:06.149Z,9.70
2023-05-02T05:03:36.273Z,7.10
2023-05-02T05:06:03.598Z,6.10
2023-05-02T05:08:31.110Z,11.20
2023-05-02T05:10:58.121Z,6.80
2023-05-02T05:13:25.623Z,8.60
2023-05-02T05:15:53.241Z,7.10
2023-05-02T05:18:23.969Z,6.90
2023-05-02T05:20:50.942Z,7.10
2023-05-02T05:23:17.941Z,6.60
2023-05-02T05:25:45.955Z,7.20
2023-05-02T05:28:15.619Z,7.90
2023-05-02T05:30:42.700Z,13.50
2023-05-02T05:33:12.269Z,11.00
2023-05-02T05:35:39.427Z,8.90
2023-05-02T05:38:07.050Z,9.10
2023-05-02T05:40:36.362Z,8.60
2023-05-02T05:43:04.184Z,11.60
2023-05-02T05:45:34.764Z,12.00
2023-05-02T05:48:01.799Z,4.50
2023-05-02T05:50:31.713Z,8.90
2023-05-02T05:52:58.774Z,5.70
2023-05-02T05:55:27.860Z,4.90
2023-05-02T05:57:55.120Z,7.00
2023-05-02T06:00:22.322Z,8.30
2023-05-02T06:02:50.070Z,6.70
2023-05-02T06:05:24.928Z,9.70
2023-05-02T06:07:52.269Z,8.00
2023-05-02T06:10:19.248Z,6.90
2023-05-02T06:12:49.148Z,9.50
2023-05-02T06:15:18.384Z,10.10
2023-05-02T06:17:45.382Z,8.00
2023-05-02T06:20:12.538Z,6.30
2023-05-02T06:22:40.225Z,8.60
2023-05-02T06:25:09.016Z,6.60
2023-05-02T06:27:36.012Z,7.60
2023-05-02T06:30:03.554Z,6.80
2023-05-02T06:32:34.174Z,11.70
2023-05-02T06:35:01.942Z,7.50
2023-05-02T06:37:33.490Z,5.70
2023-05-02T06:40:00.699Z,6.00
2023-05-02T06:42:29.598Z,9.10
2023-05-02T06:44:56.657Z,8.90
2023-05-02T06:47:24.559Z,11.30
2023-05-02T06:49:53.068Z,10.40
2023-05-02T06:52:20.134Z,8.10
2023-05-02T06:54:47.130Z,6.10
2023-05-02T06:57:14.133Z,10.10
2023-05-02T06:59:43.193Z,8.30
2023-05-02T07:02:11.523Z,7.30
2023-05-02T07:04:38.718Z,9.20
2023-05-02T07:07:06.339Z,7.50
2023-05-02T07:09:33.362Z,8.10
2023-05-02T07:12:01.087Z,19.10
2023-05-02T07:14:28.150Z,12.50
2023-05-02T07:16:55.307Z,17.40
2023-05-02T07:19:22.908Z,11.10
2023-05-02T07:21:50.626Z,11.80
2023-05-02T07:24:17.615Z,10.30
2023-05-02T07:26:44.805Z,5.20
2023-05-02T07:29:11.843Z,7.10
2023-05-02T07:31:39.676Z,4.20
2023-05-02T07:34:06.817Z,4.00
2023-05-02T07:36:34.012Z,4.50
2023-05-02T07:39:01.063Z,3.90
2023-05-02T07:41:28.050Z,3.80
2023-05-02T07:43:56.004Z,3.80
2023-05-02T07:46:23.660Z,7.90
2023-05-02T07:48:51.024Z,4.90
2023-05-02T07:51:20.935Z,9.70
2023-05-02T07:53:50.478Z,7.60
2023-05-02T07:56:17.554Z,6.00
2023-05-02T07:58:44.599Z,8.30
2023-05-02T08:01:11.715Z,10.20
2023-05-02T08:03:38.890Z,3.60
2023-05-02T08:06:05.986Z,3.30
2023-05-02T08:08:33.051Z,4.80
2023-05-02T08:11:00.283Z,5.40
2023-05-02T08:13:27.564Z,5.20
2023-05-02T08:15:58.422Z,7.50
2023-05-02T08:18:25.917Z,5.80
2023-05-02T08:20:56.100Z,6.00
2023-05-02T08:23:23.026Z,4.00
2023-05-02T08:25:50.011Z,3.00
2023-05-02T08:28:17.022Z,7.30
2023-05-02T08:30:45.410Z,3.20
2023-05-02T08:33:13.030Z,5.80
2023-05-02T08:35:40.638Z,7.90
2023-05-02T08:38:07.853Z,9.40
2023-05-02T08:40:42.077Z,3.90
2023-05-02T08:43:11.222Z,3.30
2023-05-02T08:45:42.835Z,4.10
2023-05-02T08:48:11.835Z,10.70
2023-05-02T08:50:48.358Z,8.30
2023-05-02T08:53:15.693Z,7.00
2023-05-02T08:55:43.163Z,6.10
2023-05-02T08:58:12.798Z,3.30
2023-05-02T09:00:42.208Z,2.70
2023-05-02T09:03:25.079Z,5.10
2023-05-02T09:05:53.875Z,1.90
2023-05-02T09:08:22.929Z,3.80
2023-05-02T09:10:51.460Z,4.50
2023-05-02T09:13:38.585Z,4.70
2023-05-02T09:16:07.329Z,6.40
2023-05-02T09:18:41.921Z,5.40
2023-05-02T09:21:10.773Z,5.10
2023-05-02T09:23:40.796Z,6.20
2023-05-02T09:26:31.576Z,6.30
2023-05-02T09:29:05.520Z,6.70
2023-05-02T09:34:13.696Z,7.10
2023-05-02T09:36:42.451Z,6.60
2023-05-02T09:39:17.572Z,7.10
2023-05-02T09:41:45.651Z,11.80
2023-05-02T09:44:20.419Z,9.10
2023-05-02T09:46:49.064Z,8.30
2023-05-02T09:49:19.100Z,10.20
2023-05-02T09:51:47.440Z,8.40
2023-05-02T09:54:16.178Z,7.10
2023-05-02T09:56:59.036Z,6.90
2023-05-02T10:02:03.609Z,8.00
2023-05-02T10:04:32.206Z,14.10
2023-05-02T10:06:59.661Z,8.40
2023-05-02T10:09:27.583Z,8.90
2023-05-02T10:11:55.347Z,8.00
2023-05-02T10:14:23.938Z,5.00
2023-05-02T10:16:55.978Z,8.40
2023-05-02T10:20:12.374Z,4.20
2023-05-02T10:22:39.386Z,6.20
2023-05-02T10:25:06.673Z,7.30
2023-05-02T10:27:33.817Z,5.70
2023-05-02T10:30:01.525Z,5.80
2023-05-02T10:32:32.504Z,6.00
2023-05-02T10:35:05.539Z,6.20
2023-05-02T10:37:36.947Z,2.80
2023-05-02T10:40:04.316Z,9.90
2023-05-02T10:42:31.367Z,6.60
2023-05-02T10:44:59.174Z,8.10
2023-05-02T10:47:27.183Z,11.50
2023-05-02T10:49:58.137Z,7.60
2023-05-02T10:52:36.083Z,7.90
2023-05-02T10:55:22.384Z,7.10
2023-05-02T10:58:01.572Z,11.00
2023-05-02T11:00:33.805Z,7.20
2023-05-02T11:03:01.594Z,6.60
2023-05-02T11:05:28.888Z,10.70
2023-05-02T11:08:20.158Z,10.70
2023-05-02T11:10:48.148Z,9.20
2023-05-02T11:13:15.744Z,8.50
2023-05-02T11:15:42.650Z,7.10
2023-05-02T11:18:12.133Z,6.50
2023-05-02T11:20:40.165Z,5.60
2023-05-02T11:23:22.264Z,10.80
2023-05-02T11:25:50.485Z,7.80
2023-05-02T11:28:39.763Z,7.20
2023-05-02T11:31:10.996Z,6.50
2023-05-02T11:33:38.112Z,8.40
2023-05-02T11:36:05.396Z,5.10
2023-05-02T11:38:37.257Z,10.80
2023-05-02T11:41:04.608Z,7.20
2023-05-02T11:43:32.604Z,6.70
2023-05-02T11:46:02.005Z,3.70
2023-05-02T11:48:29.594Z,5.80
2023-05-02T11:50:58.394Z,5.50
2023-05-02T11:53:26.924Z,8.00
2023-05-02T11:55:56.268Z,4.80
2023-05-02T11:58:30.081Z,7.70
2023-05-02T12:00:57.403Z,5.50
2023-05-02T12:03:32.321Z,6.90
2023-05-02T12:06:12.658Z,8.40
2023-05-02T12:08:40.876Z,8.70
2023-05-02T12:11:08.082Z,10.30
2023-05-02T12:13:35.156Z,7.70
2023-05-02T12:16:02.340Z,13.00
2023-05-02T12:18:29.525Z,8.60
2023-05-02T12:20:56.746Z,6.00
2023-05-02T12:23:24.858Z,6.30
2023-05-02T12:25:51.900Z,4.00
2023-05-02T12:28:20.004Z,12.60
2023-05-02T12:30:51.308Z,7.50
2023-05-02T12:33:18.716Z,7.20
2023-05-02T12:35:47.529Z,9.30
2023-05-02T12:38:16.129Z,9.20
2023-05-02T12:41:01.579Z,10.50
2023-05-02T12:43:28.555Z,11.10
2023-05-02T12:46:11.898Z,11.10
2023-05-02T12:48:38.957Z,15.00
2023-05-02T12:51:06.099Z,6.80
2023-05-02T12:53:44.034Z,9.60
2023-05-02T12:56:11.473Z,6.10
2023-05-02T12:58:43.228Z,6.90
2023-05-02T13:01:10.786Z,14.40
2023-05-02T13:03:38.026Z,10.90
2023-05-02T13:06:05.408Z,6.20
2023-05-02T13:08:33.806Z,6.90
2023-05-02T13:11:02.961Z,6.90
2023-05-02T13:13:30.485Z,11.10
2023-05-02T13:15:58.622Z,3.30
2023-05-02T13:18:26.079Z,8.50
2023-05-02T13:20:53.186Z,8.20
2023-05-02T13:23:20.352Z,12.50
2023-05-02T13:25:47.355Z,8.80
2023-05-02T13:28:14.434Z,7.10
2023-05-02T13:30:41.626Z,11.20
2023-05-02T13:33:09.268Z,7.80
2023-05-02T13:35:36.598Z,7.70
2023-05-02T13:38:03.920Z,5.60
2023-05-02T13:40:31.070Z,3.40
2023-05-02T13:42:58.258Z,3.20
2023-05-02T13:45:25.292Z,4.30
2023-05-02T13:47:52.348Z,5.30
2023-05-02T13:50:19.988Z,3.60
2023-05-02T13:52:49.075Z,3.00
2023-05-02T13:55:16.627Z,4.50
2023-05-02T13:57:43.718Z,3.30
2023-05-02T14:00:11.598Z,4.30
2023-05-02T14:02:39.395Z,10.00
2023-05-02T14:05:07.410Z,6.40
2023-05-02T14:07:34.883Z,8.40
2023-05-02T14:10:02.796Z,6.20
2023-05-02T14:12:30.701Z,5.60
2023-05-02T14:14:57.746Z,4.20
2023-05-02T14:17:26.105Z,5.00
2023-05-02T14:19:53.095Z,4.70
2023-05-02T14:22:20.134Z,4.80
2023-05-02T14:24:47.821Z,5.30
2023-05-02T14:27:18.430Z,4.20
2023-05-02T14:29:46.185Z,9.80
2023-05-02T14:32:13.694Z,6.50
2023-05-02T14:34:42.059Z,3.40
2023-05-02T14:37:09.375Z,5.60
2023-05-02T14:39:40.300Z,7.70
2023-05-02T14:42:07.978Z,5.00
2023-05-02T14:44:36.711Z,4.60
2023-05-02T14:47:03.827Z,8.40
2023-05-02T14:49:31.635Z,5.10
2023-05-02T14:51:59.174Z,5.00
2023-05-02T14:54:28.843Z,5.20
2023-05-02T14:56:56.082Z,4.70
2023-05-02T14:59:25.398Z,5.20
2023-05-02T15:01:53.287Z,5.30
2023-05-02T15:04:20.723Z,7.00
2023-05-02T15:06:48.334Z,3.10
2023-05-02T15:09:16.372Z,4.80
2023-05-02T15:11:44.905Z,7.80
2023-05-02T15:14:11.978Z,9.60
2023-05-02T15:16:39.838Z,3.40
2023-05-02T15:19:06.936Z,7.40
2023-05-02T15:21:35.276Z,6.30
2023-05-02T15:24:02.746Z,3.00
2023-05-02T15:26:30.520Z,4.90
2023-05-02T15:29:00.265Z,5.70
2023-05-02T15:31:28.145Z,6.40
2023-05-02T15:33:55.373Z,7.20
2023-05-02T15:36:23.299Z,4.80
2023-05-02T15:38:50.775Z,8.40
2023-05-02T15:41:18.262Z,6.70
2023-05-02T15:43:45.335Z,8.20
2023-05-02T15:46:12.740Z,8.30
2023-05-02T15:48:40.160Z,5.80
2023-05-02T15:51:09.245Z,8.10
2023-05-02T15:53:39.762Z,10.90
2023-05-02T15:56:09.550Z,4.80
2023-05-02T15:58:36.636Z,3.90
2023-05-02T16:01:04.924Z,5.60
2023-05-02T16:03:32.781Z,3.80
2023-05-02T16:06:00.250Z,8.40
2023-05-02T16:08:27.938Z,8.20
2023-05-02T16:10:55.952Z,8.90
2023-05-02T16:13:23.236Z,8.50
2023-05-02T16:15:52.852Z,7.60
2023-05-02T16:18:20.205Z,16.60
2023-05-02T16:20:47.925Z,10.30
2023-05-02T16:23:15.075Z,6.20
2023-05-02T16:25:42.038Z,8.70
2023-05-02T16:28:09.064Z,6.60
2023-05-02T16:30:37.242Z,7.90
2023-05-02T16:33:04.360Z,18.90
2023-05-02T16:35:31.973Z,14.10
2023-05-02T16:37:58.898Z,16.00
2023-05-02T16:40:27.469Z,9.20
2023-05-02T16:42:55.901Z,10.90
2023-05-02T16:45:23.356Z,11.30
2023-05-02T16:47:50.551Z,8.50
2023-05-02T16:50:18.987Z,9.10
2023-05-02T16:52:45.986Z,9.90
2023-05-02T16:55:12.956Z,9.90
2023-05-02T16:57:39.901Z,7.70
2023-05-02T17:00:10.539Z,13.10
2023-05-02T17:02:37.631Z,10.10
2023-05-02T17:05:05.591Z,11.80
2023-05-02T17:07:32.631Z,20.90
2023-05-02T17:09:59.790Z,16.10
2023-05-02T17:12:27.349Z,12.50
2023-05-02T17:14:54.546Z,10.00
2023-05-02T17:17:23.630Z,10.80
2023-05-02T17:19:51.427Z,9.10
2023-05-02T17:22:19.160Z,11.80
2023-05-02T17:24:48.637Z,12.00
2023-05-02T17:27:16.640Z,10.40
2023-05-02T17:29:46.983Z,13.00
2023-05-02T17:32:15.932Z,12.30
2023-05-02T17:34:46.032Z,11.90
2023-05-02T17:37:13.170Z,12.30
2023-05-02T17:39:40.149Z,10.20
2023-05-02T17:42:07.327Z,14.40
2023-05-02T17:44:37.185Z,11.60
2023-05-02T17:47:04.608Z,12.80
2023-05-02T17:49:32.265Z,10.60
2023-05-02T17:51:59.299Z,10.90
2023-05-02T17:54:26.354Z,6.10
2023-05-02T17:56:53.477Z,9.90
2023-05-02T17:59:20.750Z,10.90
2023-05-02T18:01:47.768Z,7.80
2023-05-02T18:04:15.656Z,7.00
2023-05-02T18:06:42.741Z,7.70
2023-05-02T18:09:09.901Z,9.80
2023-05-02T18:11:40.273Z,7.60
2023-05-02T18:14:07.524Z,12.80
2023-05-02T18:16:36.489Z,8.90
2023-05-02T18:19:04.604Z,5.60
2023-05-02T18:21:34.857Z,10.30
2023-05-02T18:24:02.098Z,8.30
2023-05-02T18:26:29.071Z,5.60
2023-05-02T18:28:56.075Z,5.60
2023-05-02T18:31:23.933Z,7.20
2023-05-02T18:33:51.698Z,7.50
2023-05-02T18:36:27.384Z,9.50
2023-05-02T18:38:56.411Z,5.20
2023-05-02T18:41:23.624Z,11.00
2023-05-02T18:43:50.622Z,5.30
2023-05-02T18:46:17.760Z,7.70
2023-05-02T18:48:44.821Z,10.60
2023-05-02T18:51:12.332Z,6.20
2023-05-02T18:53:39.330Z,5.90
2023-05-02T18:56:13.189Z,6.50
2023-05-02T18:58:41.158Z,6.60
2023-05-02T19:01:15.332Z,10.60
2023-05-02T19:03:49.176Z,8.50
2023-05-02T19:06:19.878Z,6.00
2023-05-02T19:08:47.969Z,4.90
2023-05-02T19:11:17.660Z,10.30
2023-05-02T19:13:45.873Z,6.90
2023-05-02T19:16:13.832Z,8.90
2023-05-02T19:18:44.209Z,19.20
2023-05-02T19:21:12.937Z,10.20
2023-05-02T19:23:43.483Z,8.60
2023-05-02T19:26:16.357Z,13.90
2023-05-02T19:31:28.749Z,8.00
2023-05-02T19:33:58.232Z,14.10
2023-05-02T19:36:27.937Z,9.80
2023-05-02T19:38:55.088Z,11.30
2023-05-02T19:41:22.968Z,9.50
2023-05-02T19:43:55.991Z,7.90
2023-05-02T19:46:23.970Z,11.40
2023-05-02T19:48:52.526Z,6.20
2023-05-02T19:51:25.646Z,12.70
2023-05-02T19:53:53.971Z,7.40
2023-05-02T19:56:21.811Z,6.30
2023-05-02T19:58:48.775Z,9.70
2023-05-02T20:01:16.100Z,8.20
2023-05-02T20:03:43.395Z,8.80
2023-05-02T20:06:10.591Z,9.50
2023-05-02T20:08:37.596Z,8.20
2023-05-02T20:11:05.313Z,5.90
2023-05-02T20:13:32.251Z,9.60
2023-05-02T20:15:59.297Z,6.00
2023-05-02T20:18:26.283Z,8.00
2023-05-02T20:20:53.274Z,8.90
2023-05-02T20:23:20.228Z,8.00
2023-05-02T20:25:47.262Z,7.70
2023-05-02T20:28:14.237Z,7.30
2023-05-02T20:30:42.104Z,5.80
2023-05-02T20:33:15.467Z,9.70
2023-05-02T20:35:44.026Z,4.70
2023-05-02T20:38:11.268Z,8.50
2023-05-02T20:40:39.907Z,11.60
2023-05-02T20:43:07.554Z,6.20
2023-05-02T20:45:34.822Z,7.50
2023-05-02T20:48:01.904Z,6.80
2023-05-02T20:50:28.985Z,8.40
2023-05-02T20:52:56.687Z,9.20
2023-05-02T20:55:24.488Z,9.80
2023-05-02T20:57:53.484Z,9.10
2023-05-02T21:00:23.629Z,7.80
2023-05-02T21:02:50.868Z,9.20
2023-05-02T21:05:18.218Z,6.50
2023-05-02T21:07:45.231Z,8.60
2023-05-02T21:10:12.307Z,7.20
2023-05-02T21:12:39.522Z,8.30
2023-05-02T21:15:07.720Z,11.00
2023-05-02T21:17:34.846Z,6.10
2023-05-02T21:20:02.068Z,12.50
2023-05-02T21:22:29.449Z,10.40
2023-05-02T21:24:56.560Z,7.70
2023-05-02T21:27:23.691Z,6.70
2023-05-02T21:29:50.930Z,8.70
2023-05-02T21:32:17.956Z,7.10
2023-05-02T21:34:44.933Z,13.70
2023-05-02T21:37:11.912Z,7.80
2023-05-02T21:39:39.040Z,7.20
2023-05-02T21:42:06.280Z,10.10
2023-05-02T21:44:33.254Z,5.30
2023-05-02T21:47:00.378Z,5.20
2023-05-02T21:49:29.545Z,10.50
2023-05-02T21:51:58.393Z,16.80
2023-05-02T21:54:25.601Z,18.90
2023-05-02T21:56:55.661Z,9.80
2023-05-02T21:59:22.608Z,9.10
2023-05-02T22:01:49.634Z,8.80
2023-05-02T22:04:17.625Z,9.10
2023-05-02T22:06:51.829Z,8.90
2023-05-02T22:09:20.882Z,8.60
2023-05-02T22:11:47.933Z,10.50
2023-05-02T22:14:14.977Z,12.10
2023-05-02T22:16:41.998Z,5.90
2023-05-02T22:19:17.760Z,6.20
2023-05-02T22:21:44.764Z,9.80
2023-05-02T22:24:11.730Z,9.50
2023-05-02T22:26:38.689Z,6.90
2023-05-02T22:29:05.636Z,5.90
2023-05-02T22:31:32.608Z,6.70
2023-05-02T22:33:59.578Z,9.00
2023-05-02T22:36:27.925Z,5.10
2023-05-02T22:38:55.219Z,7.80
2023-05-02T22:41:22.174Z,9.30
2023-05-02T22:43:49.137Z,10.00
2023-05-02T22:46:16.250Z,7.70
2023-05-02T22:48:43.228Z,8.20
2023-05-02T22:51:10.221Z,8.70
2023-05-02T22:53:37.146Z,5.80
2023-05-02T22:56:04.535Z,9.50
2023-05-02T22:58:31.615Z,12.00
2023-05-02T23:00:58.583Z,12.40
2023-05-02T23:03:25.604Z,12.10
2023-05-02T23:05:52.617Z,13.40
2023-05-02T23:08:20.057Z,6.10
2023-05-02T23:10:47.145Z,5.90
2023-05-02T23:13:14.104Z,8.60
2023-05-02T23:15:41.717Z,7.40
2023-05-02T23:18:08.794Z,7.30
2023-05-02T23:20:35.873Z,8.40
2023-05-02T23:23:03.344Z,9.60
2023-05-02T23:25:30.303Z,7.10
2023-05-02T23:27:57.301Z,7.10
2023-05-02T23:30:24.225Z,8.60
2023-05-02T23:32:51.823Z,8.50
2023-05-02T23:35:18.923Z,8.30
2023-05-02T23:37:45.930Z,7.80
2023-05-02T23:40:13.621Z,10.30
2023-05-02T23:42:41.050Z,6.80
2023-05-02T23:45:09.151Z,7.00
2023-05-02T23:47:36.608Z,8.20
2023-05-02T23:50:07.422Z,6.40
2023-05-02T23:52:34.355Z,7.20
2023-05-02T23:55:01.386Z,9.00
2023-05-02T23:57:31.372Z,10.00
2023-05-02T23:59:58.319Z,10.50
